createdAt,value
2022-10-09T00:00:21.987Z,81.09
2022-10-09T00:03:12.586Z,80.83
2022-10-09T00:05:44.334Z,80.81
2022-10-09T00:08:15.272Z,80.69
2022-10-09T00:10:47.027Z,80.61
2022-10-09T00:13:17.972Z,80.49
2022-10-09T00:15:49.523Z,80.33
2022-10-09T00:18:21.066Z,80.41
2022-10-09T00:20:52.120Z,80.53
2022-10-09T00:23:22.889Z,80.53
2022-10-09T00:25:56.558Z,80.69
2022-10-09T00:28:29.735Z,80.79
2022-10-09T00:31:00.653Z,80.84
2022-10-09T00:33:31.528Z,80.89
2022-10-09T00:36:05.540Z,80.71
2022-10-09T00:38:37.296Z,80.40
2022-10-09T00:41:08.870Z,80.43
2022-10-09T00:43:46.923Z,80.38
2022-10-09T00:46:26.418Z,80.08
2022-10-09T00:49:03.564Z,80.08
2022-10-09T00:51:35.339Z,80.03
2022-10-09T00:54:10.106Z,79.99
2022-10-09T00:56:41.263Z,79.84
2022-10-09T00:59:12.866Z,79.89
2022-10-09T01:01:44.715Z,80.20
2022-10-09T01:04:16.054Z,80.49
2022-10-09T01:06:57.306Z,80.60
2022-10-09T01:09:36.123Z,80.88
2022-10-09T01:12:13.997Z,81.03
2022-10-09T01:14:52.068Z,81.06
2022-10-09T01:17:31.986Z,80.93
2022-10-09T01:20:26.716Z,80.97
2022-10-09T01:23:13.405Z,80.77
2022-10-09T01:25:55.040Z,80.78
2022-10-09T01:28:29.120Z,80.64
2022-10-09T01:31:03.922Z,80.66
2022-10-09T01:33:35.708Z,80.57
2022-10-09T01:36:09.402Z,80.65
2022-10-09T01:38:42.543Z,80.75
2022-10-09T01:41:13.658Z,81.33
2022-10-09T01:43:44.724Z,81.25
2022-10-09T01:46:29.218Z,81.26
2022-10-09T01:49:14.034Z,81.52
2022-10-09T01:51:53.225Z,81.77
2022-10-09T01:54:33.561Z,81.66
2022-10-09T01:57:06.156Z,81.46
2022-10-09T01:59:43.137Z,81.64
2022-10-09T02:02:43.575Z,81.64
2022-10-09T02:05:24.298Z,81.41
2022-10-09T02:07:56.468Z,81.48
2022-10-09T02:10:27.782Z,81.63
2022-10-09T02:13:00.821Z,81.38
2022-10-09T02:15:38.256Z,81.44
2022-10-09T02:18:14.102Z,81.62
2022-10-09T02:20:49.763Z,81.45
2022-10-09T02:23:21.101Z,81.49
2022-10-09T02:25:53.598Z,81.53
2022-10-09T02:28:25.135Z,81.57
2022-10-09T02:32:01.095Z,81.48
2022-10-09T02:34:55.872Z,81.40
2022-10-09T02:37:26.900Z,81.21
2022-10-09T02:39:57.604Z,81.30
2022-10-09T02:42:31.258Z,81.10
2022-10-09T02:45:02.385Z,81.17
2022-10-09T02:47:33.293Z,81.16
2022-10-09T02:50:04.331Z,80.92
2022-10-09T02:52:35.540Z,80.68
2022-10-09T02:55:05.084Z,80.92
2022-10-09T02:57:36.014Z,80.89
2022-10-09T03:00:08.407Z,81.07
2022-10-09T03:02:39.418Z,81.11
2022-10-09T03:05:12.035Z,81.15
2022-10-09T03:07:50.370Z,81.28
2022-10-09T03:10:22.320Z,81.56
2022-10-09T03:12:53.452Z,81.85
2022-10-09T03:15:24.596Z,81.80
2022-10-09T03:17:55.471Z,82.05
2022-10-09T03:20:26.574Z,82.15
2022-10-09T03:22:58.294Z,82.28
2022-10-09T03:25:29.404Z,82.32
2022-10-09T03:28:00.540Z,82.26
2022-10-09T03:30:31.349Z,82.42
2022-10-09T03:33:02.296Z,82.30
2022-10-09T03:35:33.163Z,82.24
2022-10-09T03:38:03.967Z,82.25
2022-10-09T03:40:34.899Z,82.06
2022-10-09T03:43:05.879Z,81.84
2022-10-09T03:45:37.065Z,81.66
2022-10-09T03:48:08.440Z,81.51
2022-10-09T03:50:39.848Z,81.44
2022-10-09T03:53:12.677Z,81.31
2022-10-09T03:55:44.076Z,81.36
2022-10-09T03:58:13.287Z,81.28
2022-10-09T04:00:46.786Z,81.39
2022-10-09T04:03:24.936Z,81.58
2022-10-09T04:05:55.932Z,81.53
2022-10-09T04:08:27.736Z,81.74
2022-10-09T04:11:00.803Z,81.90
2022-10-09T04:13:31.638Z,81.94
2022-10-09T04:16:02.670Z,82.23
2022-10-09T04:18:33.789Z,82.32
2022-10-09T04:21:05.045Z,82.65
2022-10-09T04:23:36.134Z,82.67
2022-10-09T04:26:07.576Z,82.83
2022-10-09T04:28:38.470Z,82.57
2022-10-09T04:31:09.762Z,82.42
2022-10-09T04:33:39.170Z,82.39
2022-10-09T04:36:10.335Z,82.25
2022-10-09T04:38:41.462Z,82.10
2022-10-09T04:41:13.016Z,82.17
2022-10-09T04:43:43.955Z,82.00
2022-10-09T04:46:15.970Z,81.98
2022-10-09T04:48:48.622Z,81.70
2022-10-09T04:51:20.431Z,81.56
2022-10-09T04:53:51.422Z,81.09
2022-10-09T04:56:24.023Z,81.21
2022-10-09T04:58:55.232Z,81.05
2022-10-09T05:01:28.444Z,80.84
2022-10-09T05:03:59.770Z,81.07
2022-10-09T05:06:30.946Z,80.99
2022-10-09T05:09:01.959Z,81.42
2022-10-09T05:11:33.404Z,81.45
2022-10-09T05:14:04.342Z,81.72
2022-10-09T05:16:49.403Z,81.89
2022-10-09T05:19:26.186Z,81.91
2022-10-09T05:21:58.339Z,81.98
2022-10-09T05:24:29.736Z,82.03
2022-10-09T05:27:01.447Z,82.35
2022-10-09T05:29:32.281Z,82.65
2022-10-09T05:32:03.196Z,82.68
2022-10-09T05:34:37.893Z,82.97
2022-10-09T05:37:09.015Z,83.15
2022-10-09T05:39:39.810Z,83.24
2022-10-09T05:42:10.755Z,83.18
2022-10-09T05:44:41.597Z,83.00
2022-10-09T05:47:13.793Z,83.09
2022-10-09T05:49:44.779Z,82.87
2022-10-09T05:52:15.724Z,82.71
2022-10-09T05:54:46.555Z,82.73
2022-10-09T05:57:25.475Z,82.59
2022-10-09T05:59:59.561Z,82.53
2022-10-09T06:02:30.606Z,82.33
2022-10-09T06:05:01.690Z,82.26
2022-10-09T06:07:33.360Z,82.36
2022-10-09T06:10:05.090Z,82.25
2022-10-09T06:12:36.773Z,81.95
2022-10-09T06:15:09.197Z,81.91
2022-10-09T06:21:39.133Z,81.89
2022-10-09T06:24:23.310Z,82.18
2022-10-09T06:26:56.722Z,82.26
2022-10-09T06:29:30.719Z,82.49
2022-10-09T06:32:02.033Z,82.38
2022-10-09T06:34:32.898Z,82.71
2022-10-09T06:37:03.590Z,82.60
2022-10-09T06:39:34.464Z,82.86
2022-10-09T06:42:05.689Z,82.76
2022-10-09T06:44:35.103Z,83.01
2022-10-09T06:47:06.334Z,82.91
2022-10-09T06:49:37.380Z,82.70
2022-10-09T06:52:08.522Z,82.77
2022-10-09T06:54:39.502Z,82.84
2022-10-09T06:57:10.574Z,83.18
2022-10-09T06:59:41.414Z,83.15
2022-10-09T07:02:12.864Z,83.03
2022-10-09T07:04:43.976Z,83.09
2022-10-09T07:07:15.079Z,83.22
2022-10-09T07:09:46.367Z,83.17
2022-10-09T07:12:17.166Z,83.48
2022-10-09T07:14:57.261Z,83.82
2022-10-09T07:17:29.103Z,83.81
2022-10-09T07:20:00.058Z,83.71
2022-10-09T07:22:31.565Z,83.57
2022-10-09T07:25:02.479Z,83.63
2022-10-09T07:27:31.936Z,83.72
2022-10-09T07:30:02.852Z,84.02
2022-10-09T07:32:33.611Z,84.05
2022-10-09T07:35:04.731Z,83.71
2022-10-09T07:37:34.071Z,83.37
2022-10-09T07:40:05.279Z,83.40
2022-10-09T07:42:34.545Z,83.60
2022-10-09T07:45:05.686Z,83.65
2022-10-09T07:47:36.771Z,83.46
2022-10-09T07:50:09.060Z,83.23
2022-10-09T07:52:40.146Z,83.44
2022-10-09T07:55:11.784Z,83.73
2022-10-09T07:57:42.846Z,83.84
2022-10-09T08:00:15.048Z,84.09
2022-10-09T08:02:46.093Z,83.86
2022-10-09T08:05:17.184Z,83.69
2022-10-09T08:07:48.025Z,83.68
2022-10-09T08:10:19.417Z,83.84
2022-10-09T08:12:53.152Z,83.77
2022-10-09T08:15:34.340Z,83.57
2022-10-09T08:18:10.267Z,83.36
2022-10-09T08:20:43.246Z,83.33
2022-10-09T08:26:42.953Z,83.20
2022-10-09T08:29:20.959Z,82.93
2022-10-09T08:31:52.165Z,82.82
2022-10-09T08:34:21.609Z,82.54
2022-10-09T08:36:52.489Z,82.01
2022-10-09T08:39:23.924Z,81.41
2022-10-09T08:41:57.832Z,80.88
2022-10-09T08:44:33.222Z,80.59
2022-10-09T08:47:13.620Z,80.29
2022-10-09T08:49:53.884Z,79.56
2022-10-09T08:52:30.018Z,78.84
2022-10-09T08:55:05.400Z,77.45
2022-10-09T08:57:37.159Z,77.29
2022-10-09T09:00:17.386Z,77.36
2022-10-09T09:03:15.875Z,77.42
2022-10-09T09:05:55.921Z,76.12
2022-10-09T09:08:38.166Z,75.38
2022-10-09T09:11:21.666Z,75.42
2022-10-09T09:14:04.247Z,74.43
2022-10-09T09:16:42.448Z,74.53
2022-10-09T09:19:47.170Z,75.51
2022-10-09T09:22:19.106Z,75.16
2022-10-09T09:24:54.591Z,74.95
2022-10-09T09:27:28.976Z,74.35
2022-10-09T09:30:04.464Z,73.41
2022-10-09T09:32:36.012Z,72.18
2022-10-09T09:35:22.581Z,71.75
2022-10-09T09:37:53.696Z,72.14
2022-10-09T09:40:36.254Z,71.75
2022-10-09T09:43:18.049Z,70.80
2022-10-09T09:45:50.180Z,70.79
2022-10-09T09:48:29.307Z,71.02
2022-10-09T09:51:26.990Z,71.04
2022-10-09T09:53:57.886Z,69.51
2022-10-09T09:59:42.105Z,68.60
2022-10-09T10:02:18.163Z,68.61
2022-10-09T10:05:02.854Z,68.73
2022-10-09T10:07:37.856Z,68.83
2022-10-09T10:10:25.017Z,68.54
2022-10-09T10:13:01.654Z,66.72
2022-10-09T10:15:34.972Z,66.41
2022-10-09T10:18:08.755Z,66.10
2022-10-09T10:20:48.388Z,65.65
2022-10-09T10:23:34.184Z,65.90
2022-10-09T10:26:17.109Z,65.25
2022-10-09T10:28:53.941Z,64.26
2022-10-09T10:31:37.482Z,64.23
2022-10-09T10:34:15.398Z,64.58
2022-10-09T10:36:46.673Z,65.41
2022-10-09T10:39:31.045Z,65.51
2022-10-09T10:42:07.879Z,65.01
2022-10-09T10:44:50.031Z,65.26
2022-10-09T10:47:25.438Z,64.82
2022-10-09T10:49:56.707Z,63.38
2022-10-09T10:52:39.933Z,64.10
2022-10-09T10:55:28.112Z,62.69
2022-10-09T10:58:09.584Z,62.59
2022-10-09T11:00:50.165Z,63.27
2022-10-09T11:03:37.463Z,63.61
2022-10-09T11:06:10.009Z,62.64
2022-10-09T11:09:00.906Z,62.70
2022-10-09T11:11:38.611Z,61.23
2022-10-09T11:14:23.287Z,61.72
2022-10-09T11:17:07.270Z,61.91
2022-10-09T11:20:07.937Z,61.07
2022-10-09T11:22:56.808Z,62.12
2022-10-09T11:25:37.802Z,60.97
2022-10-09T11:28:13.698Z,60.81
2022-10-09T11:30:51.043Z,60.99
2022-10-09T11:33:33.841Z,61.13
2022-10-09T11:36:12.382Z,61.35
2022-10-09T11:38:47.730Z,62.08
2022-10-09T11:41:19.632Z,62.13
2022-10-09T11:44:02.404Z,61.78
2022-10-09T11:46:47.718Z,60.96
2022-10-09T11:49:26.303Z,60.27
2022-10-09T11:52:02.769Z,60.89
2022-10-09T11:54:35.179Z,59.81
2022-10-09T11:57:12.931Z,59.66
2022-10-09T11:59:45.814Z,59.70
2022-10-09T12:02:29.130Z,60.55
2022-10-09T12:05:00.218Z,59.91
2022-10-09T12:07:34.697Z,58.30
2022-10-09T12:10:10.201Z,58.75
2022-10-09T12:12:40.958Z,58.72
2022-10-09T12:15:29.170Z,59.11
2022-10-09T12:17:59.843Z,60.50
2022-10-09T12:20:31.781Z,59.42
2022-10-09T12:23:25.820Z,59.42
2022-10-09T12:25:54.906Z,59.70
2022-10-09T12:28:30.591Z,59.09
2022-10-09T12:31:04.565Z,59.41
2022-10-09T12:33:41.286Z,58.09
2022-10-09T12:36:14.249Z,59.16
2022-10-09T12:38:45.312Z,59.07
2022-10-09T12:41:21.904Z,58.95
2022-10-09T12:43:54.571Z,59.13
2022-10-09T12:46:37.120Z,59.12
2022-10-09T12:49:18.397Z,58.93
2022-10-09T12:51:56.586Z,57.65
2022-10-09T12:54:28.768Z,58.13
2022-10-09T12:57:01.798Z,57.86
2022-10-09T12:59:34.110Z,58.73
2022-10-09T13:02:05.477Z,58.68
2022-10-09T13:04:36.691Z,58.21
2022-10-09T13:07:19.738Z,56.98
2022-10-09T13:09:51.242Z,57.25
2022-10-09T13:12:25.456Z,57.97
2022-10-09T13:18:58.437Z,57.23
2022-10-09T13:21:35.202Z,57.46
2022-10-09T13:24:41.993Z,57.88
2022-10-09T13:27:16.486Z,58.27
2022-10-09T13:29:50.588Z,57.49
2022-10-09T13:32:22.907Z,57.08
2022-10-09T13:34:55.214Z,56.89
2022-10-09T13:37:45.532Z,57.63
2022-10-09T13:40:21.820Z,58.67
2022-10-09T13:42:57.423Z,58.46
2022-10-09T13:45:28.650Z,57.12
2022-10-09T13:47:59.689Z,57.89
2022-10-09T13:50:31.460Z,58.35
2022-10-09T13:53:02.390Z,58.34
2022-10-09T13:55:33.493Z,57.89
2022-10-09T13:58:04.688Z,57.58
2022-10-09T14:00:37.150Z,57.93
2022-10-09T14:03:07.949Z,58.52
2022-10-09T14:05:38.864Z,58.50
2022-10-09T14:08:10.482Z,59.80
2022-10-09T14:10:43.513Z,59.33
2022-10-09T14:13:14.662Z,59.12
2022-10-09T14:15:45.632Z,59.10
2022-10-09T14:18:16.760Z,57.61
2022-10-09T14:20:47.582Z,56.67
2022-10-09T14:23:18.562Z,57.28
2022-10-09T14:25:49.338Z,57.68
2022-10-09T14:28:20.261Z,58.39
2022-10-09T14:34:34.333Z,58.54
2022-10-09T14:37:18.845Z,57.61
2022-10-09T14:39:59.271Z,57.66
2022-10-09T14:42:30.294Z,54.96
2022-10-09T14:45:19.690Z,55.24
2022-10-09T14:47:53.892Z,54.07
2022-10-09T14:50:24.790Z,54.25
2022-10-09T14:52:55.925Z,52.86
2022-10-09T14:55:27.240Z,52.44
2022-10-09T14:57:58.189Z,51.89
2022-10-09T15:04:18.458Z,51.40
2022-10-09T15:06:52.334Z,50.14
2022-10-09T15:09:23.038Z,49.48
2022-10-09T15:11:55.696Z,49.45
2022-10-09T15:14:27.156Z,50.38
2022-10-09T15:16:57.975Z,50.65
2022-10-09T15:19:29.097Z,50.72
2022-10-09T15:22:00.023Z,50.89
2022-10-09T15:24:30.919Z,51.34
2022-10-09T15:27:01.993Z,51.66
2022-10-09T15:29:33.067Z,51.72
2022-10-09T15:32:03.961Z,51.54
2022-10-09T15:34:38.750Z,51.58
2022-10-09T15:37:11.948Z,51.92
2022-10-09T15:39:42.906Z,52.24
2022-10-09T15:42:13.746Z,52.42
2022-10-09T15:44:45.390Z,52.34
2022-10-09T15:47:16.899Z,52.43
2022-10-09T15:49:53.442Z,52.57
2022-10-09T15:52:25.192Z,51.98
2022-10-09T15:54:56.163Z,53.88
2022-10-09T15:57:27.050Z,54.28
2022-10-09T15:59:58.285Z,55.16
2022-10-09T16:02:29.352Z,56.40
2022-10-09T16:05:00.305Z,57.32
2022-10-09T16:07:31.307Z,57.98
2022-10-09T16:10:02.318Z,59.28
2022-10-09T16:12:36.256Z,60.29
2022-10-09T16:15:08.528Z,61.13
2022-10-09T16:17:39.300Z,61.64
2022-10-09T16:20:09.312Z,62.19
2022-10-09T16:22:40.632Z,62.90
2022-10-09T16:25:12.623Z,64.08
2022-10-09T16:27:43.635Z,64.39
2022-10-09T16:30:16.886Z,64.58
2022-10-09T16:32:49.972Z,64.96
2022-10-09T16:35:22.190Z,65.52
2022-10-09T16:37:54.048Z,65.81
2022-10-09T16:40:37.521Z,66.17
2022-10-09T16:43:16.511Z,66.73
2022-10-09T16:45:47.382Z,67.15
2022-10-09T16:48:18.221Z,67.68
2022-10-09T16:50:49.907Z,68.35
2022-10-09T16:53:20.814Z,68.52
2022-10-09T16:55:50.264Z,68.85
2022-10-09T16:58:21.104Z,69.06
2022-10-09T17:00:51.936Z,69.33
2022-10-09T17:03:21.287Z,69.54
2022-10-09T17:05:52.219Z,69.88
2022-10-09T17:08:23.857Z,70.59
2022-10-09T17:10:54.741Z,71.07
2022-10-09T17:13:25.540Z,71.84
2022-10-09T17:15:56.406Z,71.88
2022-10-09T17:18:27.238Z,72.03
2022-10-09T17:20:58.354Z,71.97
2022-10-09T17:23:29.220Z,72.19
2022-10-09T17:26:05.867Z,72.34
2022-10-09T17:28:37.275Z,72.33
2022-10-09T17:31:11.322Z,72.45
2022-10-09T17:33:46.136Z,72.61
2022-10-09T17:36:19.254Z,72.89
2022-10-09T17:38:51.805Z,73.33
2022-10-09T17:41:28.078Z,73.78
2022-10-09T17:43:59.755Z,73.68
2022-10-09T17:46:32.420Z,73.75
2022-10-09T17:49:03.576Z,74.19
2022-10-09T17:51:36.145Z,74.29
2022-10-09T17:54:11.913Z,74.39
2022-10-09T17:56:44.550Z,74.35
2022-10-09T17:59:16.348Z,74.47
2022-10-09T18:01:47.444Z,74.78
2022-10-09T18:04:19.548Z,75.02
2022-10-09T18:06:50.649Z,75.16
2022-10-09T18:09:21.817Z,75.33
2022-10-09T18:11:52.848Z,75.94
2022-10-09T18:14:23.660Z,76.44
2022-10-09T18:16:55.068Z,76.64
2022-10-09T18:19:26.008Z,76.52
2022-10-09T18:21:56.975Z,76.34
2022-10-09T18:24:27.967Z,76.31
2022-10-09T18:26:58.923Z,76.41
2022-10-09T18:29:30.114Z,76.57
2022-10-09T18:32:00.807Z,76.96
2022-10-09T18:34:35.679Z,77.28
2022-10-09T18:37:09.140Z,77.53
2022-10-09T18:39:40.077Z,77.62
2022-10-09T18:42:10.894Z,77.39
2022-10-09T18:44:43.004Z,77.22
2022-10-09T18:47:17.686Z,77.24
2022-10-09T18:49:53.661Z,77.83
2022-10-09T18:52:24.781Z,78.61
2022-10-09T18:54:58.178Z,78.96
2022-10-09T18:57:29.993Z,78.97
2022-10-09T19:00:02.128Z,79.14
2022-10-09T19:02:33.025Z,79.43
2022-10-09T19:05:04.203Z,80.45
2022-10-09T19:07:35.044Z,80.34
2022-10-09T19:10:08.251Z,80.54
2022-10-09T19:12:43.724Z,80.90
2022-10-09T19:15:14.759Z,80.98
2022-10-09T19:17:45.615Z,80.95
2022-10-09T19:20:16.578Z,79.93
2022-10-09T19:22:49.631Z,79.55
2022-10-09T19:25:23.828Z,80.08
2022-10-09T19:27:54.899Z,79.95
2022-10-09T19:30:24.220Z,80.37
2022-10-09T19:32:58.581Z,80.69
2022-10-09T19:35:29.524Z,80.88
2022-10-09T19:38:03.174Z,80.85
2022-10-09T19:40:35.485Z,80.47
2022-10-09T19:43:06.376Z,80.24
2022-10-09T19:45:37.770Z,79.77
2022-10-09T19:48:08.798Z,80.35
2022-10-09T19:50:43.247Z,81.28
2022-10-09T19:53:14.690Z,82.33
2022-10-09T19:55:46.089Z,82.53
2022-10-09T19:58:18.024Z,82.30
2022-10-09T20:00:50.195Z,81.95
2022-10-09T20:03:21.470Z,81.18
2022-10-09T20:05:52.442Z,80.77
2022-10-09T20:08:23.345Z,80.54
2022-10-09T20:10:58.419Z,80.33
2022-10-09T20:13:29.373Z,80.23
2022-10-09T20:15:59.679Z,80.23
2022-10-09T20:18:30.991Z,80.08
2022-10-09T20:21:02.189Z,80.08
2022-10-09T20:23:33.156Z,80.26
2022-10-09T20:26:05.551Z,80.18
2022-10-09T20:28:38.259Z,80.13
2022-10-09T20:31:14.622Z,79.98
2022-10-09T20:33:46.843Z,79.64
2022-10-09T20:36:23.349Z,79.36
2022-10-09T20:38:57.360Z,79.21
2022-10-09T20:41:29.684Z,79.21
2022-10-09T20:44:02.577Z,79.29
2022-10-09T20:46:35.706Z,79.40
2022-10-09T20:49:16.331Z,79.20
2022-10-09T20:51:47.447Z,79.07
2022-10-09T20:54:19.956Z,79.12
2022-10-09T20:56:51.067Z,79.32
2022-10-09T20:59:20.319Z,79.47
2022-10-09T21:01:51.268Z,79.64
2022-10-09T21:04:22.111Z,79.52
2022-10-09T21:06:52.911Z,79.40
2022-10-09T21:09:23.690Z,79.26
2022-10-09T21:11:54.738Z,79.15
2022-10-09T21:14:25.415Z,79.03
2022-10-09T21:16:56.190Z,79.13
2022-10-09T21:19:27.177Z,79.04
2022-10-09T21:21:58.080Z,79.52
2022-10-09T21:24:29.398Z,79.62
2022-10-09T21:27:00.416Z,79.75
2022-10-09T21:29:31.187Z,79.69
2022-10-09T21:32:02.014Z,79.47
2022-10-09T21:34:32.854Z,79.42
2022-10-09T21:39:54.843Z,79.31
2022-10-09T21:42:25.861Z,79.37
2022-10-09T21:44:56.678Z,79.60
2022-10-09T21:47:27.603Z,79.92
2022-10-09T21:49:58.526Z,79.98
2022-10-09T21:52:29.441Z,80.02
2022-10-09T21:55:00.662Z,79.96
2022-10-09T21:57:32.072Z,79.96
2022-10-09T22:00:03.056Z,79.60
2022-10-09T22:02:34.142Z,79.51
2022-10-09T22:05:05.013Z,79.37
2022-10-09T22:07:36.003Z,79.40
2022-10-09T22:10:08.230Z,79.38
2022-10-09T22:12:39.296Z,79.37
2022-10-09T22:15:11.249Z,79.06
2022-10-09T22:17:42.315Z,79.08
2022-10-09T22:20:14.175Z,79.17
2022-10-09T22:22:44.996Z,79.12
2022-10-09T22:25:16.163Z,79.10
2022-10-09T22:27:47.055Z,78.98
2022-10-09T22:30:18.010Z,79.12
2022-10-09T22:32:49.307Z,78.99
2022-10-09T22:35:20.830Z,78.97
2022-10-09T22:37:57.383Z,78.99
2022-10-09T22:40:33.349Z,79.16
2022-10-09T22:43:04.130Z,78.97
2022-10-09T22:45:39.359Z,79.20
2022-10-09T22:48:10.364Z,78.97
2022-10-09T22:50:41.296Z,79.05
2022-10-09T22:53:12.487Z,79.06
2022-10-09T22:55:44.158Z,79.21
2022-10-09T22:58:15.188Z,79.44
2022-10-09T23:00:44.938Z,79.36
2022-10-09T23:03:15.785Z,79.62
2022-10-09T23:05:47.086Z,79.29
2022-10-09T23:08:17.934Z,79.23
2022-10-09T23:10:48.844Z,78.96
2022-10-09T23:13:21.786Z,78.89
2022-10-09T23:15:52.722Z,79.00
2022-10-09T23:18:23.457Z,79.04
2022-10-09T23:20:54.359Z,79.01
2022-10-09T23:23:35.050Z,78.88
2022-10-09T23:26:08.596Z,79.05
2022-10-09T23:28:40.189Z,79.32
2022-10-09T23:31:13.561Z,79.72
2022-10-09T23:33:46.401Z,79.89
2022-10-09T23:36:20.164Z,79.92
2022-10-09T23:38:51.922Z,79.89
2022-10-09T23:41:24.068Z,80.06
2022-10-09T23:43:55.711Z,80.13
2022-10-09T23:46:29.185Z,80.01
2022-10-09T23:49:00.979Z,80.05
2022-10-09T23:51:32.066Z,79.79
2022-10-09T23:54:03.088Z,79.78
2022-10-09T23:56:36.280Z,79.57
2022-10-09T23:59:08.439Z,79.63
